createdAt,value
2018-04-15T00:00:44.633Z,48.63
2018-04-15T00:03:11.427Z,48.83
2018-04-15T00:05:39.216Z,50.87
2018-04-15T00:08:06.070Z,52.53
2018-04-15T00:10:32.890Z,51.47
2018-04-15T00:13:01.586Z,50.97
2018-04-15T00:15:28.656Z,51.47
2018-04-15T00:17:56.506Z,51.97
2018-04-15T00:20:23.348Z,50.40
2018-04-15T00:22:51.083Z,49.53
2018-04-15T00:25:17.931Z,48.20
2018-04-15T00:27:44.789Z,47.63
2018-04-15T00:30:11.636Z,46.43
2018-04-15T00:32:39.371Z,46.57
2018-04-15T00:35:08.114Z,49.03
2018-04-15T00:37:35.845Z,47.80
2018-04-15T00:42:56.533Z,48.37
2018-04-15T00:45:25.269Z,47.27
2018-04-15T00:47:52.101Z,49.30
2018-04-15T00:50:36.007Z,49.47
2018-04-15T00:53:20.975Z,48.20
2018-04-15T00:58:34.145Z,47.37
2018-04-15T01:01:01.951Z,47.63
2018-04-15T01:03:46.824Z,47.87
2018-04-15T01:06:19.338Z,47.53
2018-04-15T01:08:48.087Z,47.63
2018-04-15T01:11:15.721Z,48.20
2018-04-15T01:13:59.683Z,47.60
2018-04-15T01:16:38.257Z,48.50
2018-04-15T01:19:15.299Z,45.67
2018-04-15T01:21:47.326Z,48.23
2018-04-15T01:24:30.936Z,49.70
2018-04-15T01:27:04.330Z,45.77
2018-04-15T01:29:37.644Z,47.97
2018-04-15T01:32:04.518Z,47.70
2018-04-15T01:34:31.343Z,49.47
2018-04-15T01:37:07.406Z,48.20
2018-04-15T01:39:34.243Z,48.70
2018-04-15T01:42:04.156Z,51.43
2018-04-15T01:44:31.960Z,51.33
2018-04-15T01:46:59.694Z,50.07
2018-04-15T01:49:27.470Z,49.33
2018-04-15T01:52:05.962Z,50.90
2018-04-15T01:54:42.986Z,48.93
2018-04-15T01:57:09.848Z,49.50
2018-04-15T01:59:37.615Z,55.40
2018-04-15T02:02:12.698Z,55.17
2018-04-15T02:07:24.860Z,52.57
2018-04-15T02:09:53.535Z,52.93
2018-04-15T02:12:22.210Z,50.37
2018-04-15T02:14:50.003Z,52.60
2018-04-15T02:17:18.666Z,53.30
2018-04-15T02:19:45.497Z,53.23
2018-04-15T02:22:15.752Z,52.37
2018-04-15T02:24:48.404Z,52.67
2018-04-15T02:27:21.442Z,53.30
2018-04-15T02:29:52.531Z,52.90
2018-04-15T02:32:22.788Z,54.70
2018-04-15T02:35:06.364Z,54.57
2018-04-15T02:40:18.672Z,52.13
2018-04-15T02:42:46.409Z,53.47
2018-04-15T02:45:13.230Z,55.60
2018-04-15T02:47:40.999Z,55.77
2018-04-15T02:50:08.772Z,52.97
2018-04-15T02:52:36.554Z,54.07
2018-04-15T02:57:49.006Z,51.53
2018-04-15T03:00:15.797Z,55.90
2018-04-15T03:02:44.465Z,52.83
2018-04-15T03:05:11.339Z,51.10
2018-04-15T03:07:41.553Z,52.43
2018-04-15T03:10:08.397Z,50.10
2018-04-15T03:12:41.697Z,50.37
2018-04-15T03:15:09.459Z,50.47
2018-04-15T03:17:39.365Z,47.17
2018-04-15T03:20:06.238Z,47.17
2018-04-15T03:22:34.900Z,47.17
2018-04-15T03:25:20.667Z,48.90
2018-04-15T03:27:52.855Z,45.23
2018-04-15T03:30:22.804Z,45.40
2018-04-15T03:32:49.634Z,46.27
2018-04-15T03:35:22.266Z,43.93
2018-04-15T03:37:50.093Z,44.47
2018-04-15T03:43:02.510Z,46.00
2018-04-15T03:48:16.782Z,42.90
2018-04-15T03:50:43.611Z,42.90
2018-04-15T03:56:04.304Z,43.93
2018-04-15T03:58:43.986Z,42.63
2018-04-15T04:01:14.613Z,43.23
2018-04-15T04:03:42.373Z,43.00
2018-04-15T04:06:09.238Z,43.90
2018-04-15T04:08:36.052Z,43.20
2018-04-15T04:11:05.971Z,43.87
2018-04-15T04:13:32.841Z,40.23
2018-04-15T04:15:59.671Z,40.60
2018-04-15T04:18:33.318Z,41.07
2018-04-15T04:21:12.061Z,40.30
2018-04-15T04:23:50.607Z,38.07
2018-04-15T04:26:22.986Z,38.07
2018-04-15T04:28:49.861Z,37.77
2018-04-15T04:31:16.677Z,36.80
2018-04-15T04:33:43.553Z,35.47
2018-04-15T04:36:11.308Z,34.00
2018-04-15T04:38:39.043Z,33.83
2018-04-15T04:41:07.759Z,33.83
2018-04-15T04:43:38.255Z,31.80
2018-04-15T04:46:14.012Z,31.63
2018-04-15T04:48:40.885Z,29.60
2018-04-15T04:51:07.722Z,29.47
2018-04-15T04:53:34.570Z,28.53
2018-04-15T04:56:04.801Z,29.03
2018-04-15T04:58:31.684Z,26.27
2018-04-15T05:01:00.331Z,27.70
2018-04-15T05:03:32.061Z,27.00
2018-04-15T05:05:58.890Z,24.73
2018-04-15T05:08:35.271Z,24.97
2018-04-15T05:11:07.330Z,23.90
2018-04-15T05:13:38.497Z,24.03
2018-04-15T05:16:09.317Z,22.13
2018-04-15T05:18:42.302Z,22.10
2018-04-15T05:21:14.382Z,22.13
2018-04-15T05:23:55.251Z,20.87
2018-04-15T05:29:14.233Z,19.73
2018-04-15T05:31:46.650Z,20.30
2018-04-15T05:34:13.448Z,18.30
2018-04-15T05:36:40.292Z,19.03
2018-04-15T05:39:10.585Z,17.33
2018-04-15T05:41:39.216Z,18.40
2018-04-15T05:44:06.069Z,17.07
2018-04-15T05:46:42.800Z,15.57
2018-04-15T05:49:11.744Z,15.27
2018-04-15T05:51:38.549Z,15.17
2018-04-15T05:54:10.338Z,15.03
2018-04-15T05:56:41.230Z,14.50
2018-04-15T05:59:09.094Z,14.83
2018-04-15T06:01:42.206Z,14.67
2018-04-15T06:04:12.438Z,14.83
2018-04-15T06:06:39.343Z,14.27
2018-04-15T06:09:08.048Z,13.93
2018-04-15T06:11:34.810Z,13.57
2018-04-15T06:14:20.627Z,12.43
2018-04-15T06:17:08.182Z,12.50
2018-04-15T06:19:40.784Z,12.30
2018-04-15T06:24:53.272Z,11.40
2018-04-15T06:27:27.628Z,11.40
2018-04-15T06:29:54.306Z,11.13
2018-04-15T06:32:21.588Z,9.90
2018-04-15T06:34:49.222Z,9.87
2018-04-15T06:37:16.980Z,9.37
2018-04-15T06:39:44.794Z,8.67
2018-04-15T06:42:11.665Z,8.73
2018-04-15T06:44:38.464Z,9.30
2018-04-15T06:47:05.265Z,8.07
2018-04-15T06:49:38.876Z,7.40
2018-04-15T06:52:22.856Z,7.57
2018-04-15T06:54:54.403Z,7.73
2018-04-15T06:57:23.119Z,7.90
2018-04-15T06:59:49.906Z,7.93
2018-04-15T07:02:16.742Z,8.00
2018-04-15T07:04:43.612Z,7.67
2018-04-15T07:07:14.113Z,8.10
2018-04-15T07:09:41.036Z,8.03
2018-04-15T07:12:08.747Z,7.70
2018-04-15T07:14:36.508Z,7.50
2018-04-15T07:17:03.378Z,7.60
2018-04-15T07:19:32.041Z,6.87
2018-04-15T07:21:59.789Z,7.93
2018-04-15T07:24:34.345Z,6.77
2018-04-15T07:27:07.277Z,7.00
2018-04-15T07:29:35.089Z,7.20
2018-04-15T07:32:01.913Z,6.27
2018-04-15T07:34:28.763Z,6.83
2018-04-15T07:36:55.628Z,6.43
2018-04-15T07:39:25.511Z,5.80
2018-04-15T07:41:52.365Z,6.17
2018-04-15T07:44:35.697Z,6.00
2018-04-15T07:47:09.083Z,6.30
2018-04-15T07:49:47.597Z,6.17
2018-04-15T07:52:18.809Z,6.20
2018-04-15T07:54:46.527Z,6.20
2018-04-15T07:57:15.245Z,6.40
2018-04-15T07:59:45.427Z,6.70
2018-04-15T08:02:12.144Z,6.33
2018-04-15T08:04:39.785Z,5.90
2018-04-15T08:07:08.427Z,6.20
2018-04-15T08:09:35.271Z,6.30
2018-04-15T08:12:02.143Z,5.30
2018-04-15T08:14:35.988Z,5.83
2018-04-15T08:17:13.785Z,5.90
2018-04-15T08:19:43.550Z,5.70
2018-04-15T08:22:21.120Z,7.17
2018-04-15T08:24:51.348Z,5.90
2018-04-15T08:27:21.928Z,6.03
2018-04-15T08:29:59.440Z,5.70
2018-04-15T08:32:30.316Z,6.23
2018-04-15T08:34:59.052Z,5.70
2018-04-15T08:37:33.934Z,6.17
2018-04-15T08:40:00.687Z,6.10
2018-04-15T08:42:33.044Z,5.67
2018-04-15T08:44:59.924Z,6.10
2018-04-15T08:47:42.010Z,5.83
2018-04-15T08:50:09.902Z,6.30
2018-04-15T08:52:37.618Z,6.50
2018-04-15T08:55:04.518Z,5.97
2018-04-15T08:57:31.347Z,5.93
2018-04-15T08:59:59.134Z,6.30
2018-04-15T09:02:25.928Z,6.40
2018-04-15T09:04:53.720Z,13.37
2018-04-15T09:07:20.526Z,6.70
2018-04-15T09:09:48.360Z,6.80
2018-04-15T09:12:17.022Z,6.90
2018-04-15T09:14:43.865Z,6.53
2018-04-15T09:17:20.857Z,6.60
2018-04-15T09:20:00.122Z,6.17
2018-04-15T09:22:43.875Z,6.40
2018-04-15T09:25:11.842Z,6.20
2018-04-15T09:27:49.037Z,6.30
2018-04-15T09:30:30.522Z,6.67
2018-04-15T09:33:03.016Z,6.43
2018-04-15T09:35:36.021Z,5.60
2018-04-15T09:38:08.052Z,5.33
2018-04-15T09:40:34.901Z,5.43
2018-04-15T09:43:04.843Z,4.67
2018-04-15T09:45:31.663Z,4.60
2018-04-15T09:48:01.879Z,4.80
2018-04-15T09:50:29.661Z,4.90
2018-04-15T09:52:56.525Z,5.07
2018-04-15T09:55:23.333Z,4.83
2018-04-15T09:57:52.018Z,4.63
2018-04-15T10:00:24.726Z,5.40
2018-04-15T10:02:58.647Z,5.30
2018-04-15T10:05:29.504Z,5.67
2018-04-15T10:08:00.898Z,6.07
2018-04-15T10:10:37.885Z,6.30
2018-04-15T10:13:05.654Z,6.20
2018-04-15T10:15:38.348Z,6.83
2018-04-15T10:18:08.567Z,6.60
2018-04-15T10:20:35.415Z,6.90
2018-04-15T10:23:02.251Z,5.73
2018-04-15T10:25:29.108Z,5.57
2018-04-15T10:28:00.244Z,5.60
2018-04-15T10:30:28.027Z,5.53
2018-04-15T10:32:54.827Z,5.80
2018-04-15T10:35:21.723Z,7.43
2018-04-15T10:37:48.525Z,7.43
2018-04-15T10:40:15.415Z,6.57
2018-04-15T10:42:42.216Z,7.10
2018-04-15T10:45:09.064Z,5.37
2018-04-15T10:47:36.849Z,5.13
2018-04-15T10:50:03.689Z,5.47
2018-04-15T10:52:41.869Z,5.80
2018-04-15T10:55:21.026Z,5.60
2018-04-15T10:57:48.800Z,5.40
2018-04-15T11:00:15.622Z,5.83
2018-04-15T11:02:44.343Z,5.97
2018-04-15T11:05:15.788Z,7.30
2018-04-15T11:07:46.935Z,6.40
2018-04-15T11:10:13.756Z,5.33
2018-04-15T11:12:41.606Z,5.77
2018-04-15T11:15:08.370Z,5.40
2018-04-15T11:17:35.205Z,5.43
2018-04-15T11:20:02.151Z,4.80
2018-04-15T11:22:29.826Z,5.13
2018-04-15T11:24:56.670Z,5.33
2018-04-15T11:27:23.523Z,5.33
2018-04-15T11:29:57.124Z,4.70
2018-04-15T11:32:24.899Z,4.37
2018-04-15T11:34:53.571Z,4.23
2018-04-15T11:37:20.433Z,4.30
2018-04-15T11:39:47.248Z,4.50
2018-04-15T11:42:15.957Z,4.40
2018-04-15T11:44:42.823Z,4.17
2018-04-15T11:47:17.293Z,3.70
2018-04-15T11:50:02.773Z,4.00
2018-04-15T11:52:31.596Z,4.67
2018-04-15T11:55:11.813Z,4.10
2018-04-15T11:57:40.621Z,4.30
2018-04-15T12:00:11.184Z,4.00
2018-04-15T12:02:41.981Z,3.60
2018-04-15T12:05:26.255Z,4.10
2018-04-15T12:07:54.115Z,4.00
2018-04-15T12:10:22.825Z,4.10
2018-04-15T12:12:49.651Z,4.20
2018-04-15T12:15:16.485Z,4.20
2018-04-15T12:17:46.741Z,4.00
2018-04-15T12:20:26.040Z,4.40
2018-04-15T12:22:53.960Z,4.77
2018-04-15T12:25:21.687Z,5.20
2018-04-15T12:27:50.378Z,4.57
2018-04-15T12:30:23.349Z,4.50
2018-04-15T12:33:09.433Z,5.00
2018-04-15T12:35:37.118Z,5.40
2018-04-15T12:38:05.689Z,5.67
2018-04-15T12:40:34.474Z,5.40
2018-04-15T12:43:01.237Z,5.20
2018-04-15T12:45:28.082Z,5.00
2018-04-15T12:47:55.878Z,5.37
2018-04-15T12:50:27.940Z,5.80
2018-04-15T12:52:54.765Z,6.43
2018-04-15T12:55:22.715Z,6.33
2018-04-15T12:57:49.400Z,5.57
2018-04-15T13:00:17.132Z,6.30
2018-04-15T13:02:44.057Z,5.67
2018-04-15T13:05:10.820Z,6.07
2018-04-15T13:07:43.487Z,6.20
2018-04-15T13:10:12.226Z,6.37
2018-04-15T13:12:40.044Z,5.93
2018-04-15T13:15:06.786Z,6.40
2018-04-15T13:17:35.504Z,6.50
2018-04-15T13:20:05.385Z,5.80
2018-04-15T13:22:35.034Z,5.93
2018-04-15T13:25:01.860Z,5.47
2018-04-15T13:27:28.691Z,7.00
2018-04-15T13:29:55.566Z,5.00
2018-04-15T13:32:22.370Z,5.90
2018-04-15T13:34:51.114Z,4.90
2018-04-15T13:37:17.948Z,5.30
2018-04-15T13:39:49.371Z,5.40
2018-04-15T13:42:16.198Z,5.80
2018-04-15T13:44:43.096Z,5.13
2018-04-15T13:47:09.890Z,5.43
2018-04-15T13:49:42.566Z,5.77
2018-04-15T13:52:09.424Z,6.00
2018-04-15T13:54:37.226Z,5.67
2018-04-15T13:57:04.974Z,5.90
2018-04-15T13:59:32.704Z,6.57
2018-04-15T14:02:00.488Z,6.60
2018-04-15T14:04:27.362Z,6.07
2018-04-15T14:06:57.850Z,6.30
2018-04-15T14:09:25.614Z,5.80
2018-04-15T14:11:52.586Z,6.10
2018-04-15T14:14:26.044Z,5.70
2018-04-15T14:16:52.915Z,5.60
2018-04-15T14:19:19.749Z,4.53
2018-04-15T14:21:48.481Z,4.17
2018-04-15T14:24:15.289Z,4.10
2018-04-15T14:26:42.157Z,4.13
2018-04-15T14:29:08.974Z,4.40
2018-04-15T14:31:38.984Z,4.23
2018-04-15T14:34:07.570Z,4.67
2018-04-15T14:36:36.312Z,4.90
2018-04-15T14:39:10.480Z,5.13
2018-04-15T14:41:37.328Z,5.50
2018-04-15T14:44:04.242Z,4.83
2018-04-15T14:46:35.635Z,4.10
2018-04-15T14:49:03.391Z,4.37
2018-04-15T14:51:37.002Z,4.30
2018-04-15T14:54:05.715Z,4.57
2018-04-15T14:56:32.524Z,4.60
2018-04-15T14:59:00.327Z,4.47
2018-04-15T15:01:31.145Z,4.50
2018-04-15T15:04:04.161Z,4.67
2018-04-15T15:06:30.961Z,4.43
2018-04-15T15:09:04.257Z,3.80
2018-04-15T15:11:35.079Z,3.60
2018-04-15T15:14:07.792Z,3.53
2018-04-15T15:16:34.607Z,3.57
2018-04-15T15:19:02.431Z,3.60
2018-04-15T15:21:42.001Z,3.93
2018-04-15T15:24:10.809Z,3.80
2018-04-15T15:26:37.681Z,4.20
2018-04-15T15:29:05.451Z,3.50
2018-04-15T15:31:35.950Z,3.63
2018-04-15T15:34:03.759Z,3.20
2018-04-15T15:36:40.385Z,3.50
2018-04-15T15:39:08.159Z,3.70
2018-04-15T15:41:35.013Z,4.30
2018-04-15T15:44:02.794Z,3.53
2018-04-15T15:46:31.478Z,3.70
2018-04-15T15:48:59.251Z,3.47
2018-04-15T15:51:27.928Z,3.90
2018-04-15T15:53:56.597Z,4.13
2018-04-15T15:56:25.300Z,4.30
2018-04-15T15:58:53.075Z,5.00
2018-04-15T16:01:19.894Z,4.30
2018-04-15T16:03:46.741Z,5.40
2018-04-15T16:06:15.461Z,4.43
2018-04-15T16:08:42.343Z,4.60
2018-04-15T16:11:12.846Z,4.17
2018-04-15T16:13:40.613Z,3.97
2018-04-15T16:16:17.377Z,5.83
2018-04-15T16:18:44.087Z,4.43
2018-04-15T16:21:11.223Z,4.60
2018-04-15T16:23:39.945Z,3.93
2018-04-15T16:26:08.603Z,4.40
2018-04-15T16:28:40.858Z,4.70
2018-04-15T16:31:09.680Z,4.97
2018-04-15T16:33:36.572Z,5.60
2018-04-15T16:36:04.298Z,5.00
2018-04-15T16:38:32.075Z,4.90
2018-04-15T16:40:59.829Z,5.10
2018-04-15T16:43:27.579Z,5.17
2018-04-15T16:45:55.335Z,5.33
2018-04-15T16:48:23.121Z,5.70
2018-04-15T16:51:03.032Z,5.73
2018-04-15T16:53:33.711Z,5.17
2018-04-15T16:56:00.549Z,5.70
2018-04-15T16:58:28.309Z,5.87
2018-04-15T17:00:55.210Z,5.83
2018-04-15T17:03:22.904Z,7.17
2018-04-15T17:05:54.392Z,7.83
2018-04-15T17:08:21.207Z,7.60
2018-04-15T17:10:48.039Z,6.53
2018-04-15T17:13:14.926Z,5.20
2018-04-15T17:15:53.097Z,6.63
2018-04-15T17:18:26.397Z,6.53
2018-04-15T17:20:55.085Z,7.90
2018-04-15T17:23:22.866Z,5.67
2018-04-15T17:25:50.640Z,4.97
2018-04-15T17:28:18.413Z,5.33
2018-04-15T17:30:49.540Z,5.53
2018-04-15T17:33:18.225Z,7.40
2018-04-15T17:35:45.095Z,7.40
2018-04-15T17:38:12.860Z,7.93
2018-04-15T17:40:40.742Z,6.63
2018-04-15T17:43:10.802Z,6.13
2018-04-15T17:45:43.538Z,5.87
2018-04-15T17:48:13.480Z,6.10
2018-04-15T17:50:40.246Z,5.70
2018-04-15T17:53:08.977Z,6.70
2018-04-15T17:55:35.825Z,6.53
2018-04-15T17:58:03.563Z,7.07
2018-04-15T18:00:30.398Z,6.50
2018-04-15T18:02:59.162Z,6.03
2018-04-15T18:05:26.875Z,5.80
2018-04-15T18:07:53.733Z,6.00
2018-04-15T18:10:29.168Z,5.60
2018-04-15T18:12:57.844Z,6.37
2018-04-15T18:15:36.018Z,6.47
2018-04-15T18:18:02.896Z,6.20
2018-04-15T18:20:29.740Z,5.70
2018-04-15T18:22:57.502Z,5.30
2018-04-15T18:25:30.150Z,5.60
2018-04-15T18:28:01.688Z,5.37
2018-04-15T18:30:28.460Z,6.13
2018-04-15T18:32:56.248Z,6.00
2018-04-15T18:35:33.531Z,6.03
2018-04-15T18:38:04.059Z,6.97
2018-04-15T18:40:32.744Z,5.97
2018-04-15T18:43:03.298Z,5.77
2018-04-15T18:45:33.478Z,6.03
2018-04-15T18:48:03.833Z,5.77
2018-04-15T18:50:33.619Z,6.93
2018-04-15T18:53:11.514Z,9.10
2018-04-15T18:55:46.365Z,9.63
2018-04-15T18:58:14.161Z,8.97
2018-04-15T19:00:40.986Z,8.13
2018-04-15T19:03:07.832Z,7.90
2018-04-15T19:05:34.683Z,6.73
2018-04-15T19:08:03.374Z,6.33
2018-04-15T19:10:30.196Z,6.60
2018-04-15T19:12:58.939Z,7.33
2018-04-15T19:15:25.721Z,7.30
2018-04-15T19:18:03.023Z,7.47
2018-04-15T19:20:32.958Z,7.40
2018-04-15T19:22:59.773Z,6.80
2018-04-15T19:25:30.017Z,6.57
2018-04-15T19:27:59.939Z,6.93
2018-04-15T19:30:27.033Z,7.40
2018-04-15T19:32:54.610Z,7.20
2018-04-15T19:35:22.374Z,7.53
2018-04-15T19:37:53.183Z,7.10
2018-04-15T19:40:27.342Z,8.07
2018-04-15T19:42:54.292Z,10.00
2018-04-15T19:45:21.030Z,10.37
2018-04-15T19:47:48.809Z,10.53
2018-04-15T19:50:25.855Z,11.27
2018-04-15T19:52:53.055Z,11.13
2018-04-15T19:55:20.149Z,9.50
2018-04-15T19:57:47.971Z,9.00
2018-04-15T20:00:15.738Z,9.37
2018-04-15T20:02:44.237Z,8.50
2018-04-15T20:05:12.986Z,8.53
2018-04-15T20:07:48.107Z,8.23
2018-04-15T20:10:16.889Z,8.50
2018-04-15T20:12:44.594Z,8.80
2018-04-15T20:15:13.277Z,8.63
2018-04-15T20:17:40.160Z,8.70
2018-04-15T20:22:52.916Z,8.93
2018-04-15T20:25:21.526Z,11.23
2018-04-15T20:27:49.307Z,8.90
2018-04-15T20:30:16.175Z,8.33
2018-04-15T20:32:46.489Z,8.73
2018-04-15T20:35:13.446Z,10.97
2018-04-15T20:37:42.240Z,12.37
2018-04-15T20:40:09.118Z,12.13
2018-04-15T20:42:35.891Z,11.37
2018-04-15T20:45:07.961Z,10.80
2018-04-15T20:47:34.833Z,10.70
2018-04-15T20:50:02.654Z,10.87
2018-04-15T20:52:37.673Z,10.63
2018-04-15T20:55:05.542Z,10.33
2018-04-15T20:57:32.324Z,9.60
2018-04-15T21:00:00.096Z,9.13
2018-04-15T21:02:34.885Z,9.60
2018-04-15T21:05:02.725Z,9.10
2018-04-15T21:07:29.516Z,9.33
2018-04-15T21:09:56.345Z,8.43
2018-04-15T21:12:24.158Z,9.80
2018-04-15T21:14:50.959Z,9.20
2018-04-15T21:17:21.503Z,9.03
2018-04-15T21:19:52.409Z,10.00
2018-04-15T21:22:21.029Z,9.80
2018-04-15T21:24:48.879Z,10.50
2018-04-15T21:27:15.650Z,9.93
2018-04-15T21:29:47.420Z,9.37
2018-04-15T21:32:15.189Z,10.03
2018-04-15T21:34:42.925Z,10.10
2018-04-15T21:37:09.792Z,10.30
2018-04-15T21:39:36.631Z,10.07
2018-04-15T21:42:04.392Z,9.27
2018-04-15T21:44:33.118Z,9.10
2018-04-15T21:46:59.900Z,10.10
2018-04-15T21:49:27.701Z,9.37
2018-04-15T21:51:57.926Z,9.13
2018-04-15T21:54:30.578Z,8.73
2018-04-15T21:56:57.425Z,8.90
2018-04-15T21:59:26.128Z,8.97
2018-04-15T22:01:56.052Z,9.97
2018-04-15T22:04:22.873Z,9.47
2018-04-15T22:06:49.711Z,9.97
2018-04-15T22:09:16.592Z,9.60
2018-04-15T22:11:49.383Z,9.57
2018-04-15T22:14:16.120Z,9.60
2018-04-15T22:16:42.913Z,8.63
2018-04-15T22:19:09.764Z,8.83
2018-04-15T22:21:36.629Z,10.47
2018-04-15T22:24:07.757Z,9.50
2018-04-15T22:26:34.621Z,9.80
2018-04-15T22:29:01.772Z,10.17
2018-04-15T22:31:33.517Z,10.03
2018-04-15T22:34:01.275Z,10.00
2018-04-15T22:36:29.970Z,9.77
2018-04-15T22:39:03.245Z,9.67
2018-04-15T22:41:33.489Z,9.67
2018-04-15T22:44:11.043Z,10.60
2018-04-15T22:46:38.270Z,10.33
2018-04-15T22:49:11.755Z,10.37
2018-04-15T22:51:42.071Z,10.73
2018-04-15T22:54:08.907Z,11.40
2018-04-15T22:56:50.363Z,10.70
2018-04-15T22:59:25.599Z,10.33
2018-04-15T23:01:57.706Z,11.00
2018-04-15T23:04:29.763Z,10.63
2018-04-15T23:06:56.607Z,10.57
2018-04-15T23:09:25.319Z,10.17
2018-04-15T23:11:55.812Z,11.17
2018-04-15T23:14:22.663Z,11.07
2018-04-15T23:16:49.629Z,11.37
2018-04-15T23:19:18.545Z,11.37
2018-04-15T23:21:48.449Z,11.80
2018-04-15T23:24:16.431Z,11.03
2018-04-15T23:26:47.337Z,11.50
2018-04-15T23:29:15.135Z,11.47
2018-04-15T23:31:47.509Z,11.17
2018-04-15T23:34:17.392Z,10.83
2018-04-15T23:36:46.077Z,11.43
2018-04-15T23:39:30.978Z,11.17
2018-04-15T23:41:59.731Z,11.90
2018-04-15T23:44:26.586Z,11.87
2018-04-15T23:46:56.522Z,12.43
2018-04-15T23:49:25.187Z,12.33
2018-04-15T23:51:58.178Z,12.33
2018-04-15T23:54:25.026Z,13.30
2018-04-15T23:56:55.709Z,13.03
2018-04-15T23:59:29.150Z,12.43
